createdAt,value
2023-03-05T04:54:11.019Z,101389.09
2023-03-05T10:04:52.673Z,101253.78
2023-03-05T10:09:56.990Z,101229.06
2023-03-05T10:14:53.991Z,101257.47
2023-03-05T10:19:56.294Z,101258.50
2023-03-05T10:25:18.411Z,101250.25
2023-03-05T10:30:45.772Z,101238.53
2023-03-05T10:35:48.115Z,101243.28
2023-03-05T11:22:00.281Z,101177.94
2023-03-05T11:55:30.165Z,101142.94
2023-03-05T12:08:15.978Z,101128.69
2023-03-05T12:56:49.264Z,101058.66
2023-03-05T13:07:06.497Z,101050.03
2023-03-05T13:12:06.558Z,101045.53
2023-03-05T13:17:06.143Z,101033.25
2023-03-05T13:22:09.319Z,101036.16
2023-03-05T13:27:20.454Z,101021.41
2023-03-05T13:32:26.832Z,101026.63
2023-03-05T13:37:43.763Z,101014.19
2023-03-05T13:42:40.229Z,100992.00
2023-03-05T13:47:36.828Z,100974.22
2023-03-05T13:53:00.613Z,100952.44
2023-03-05T13:58:14.448Z,100959.13
2023-03-05T14:03:48.853Z,100995.09
2023-03-05T14:09:33.241Z,100978.53
2023-03-05T15:18:03.046Z,100920.22
2023-03-05T15:50:42.790Z,100882.22
2023-03-05T16:02:52.039Z,100870.09
2023-03-05T16:08:17.934Z,100892.63
2023-03-05T16:39:32.522Z,100841.69
2023-03-05T16:50:45.901Z,100850.31
2023-03-05T16:55:42.377Z,100846.97
2023-03-05T17:00:38.975Z,100854.03
2023-03-05T17:05:36.536Z,100860.28
2023-03-05T17:10:33.386Z,100853.56
2023-03-05T17:15:30.029Z,100841.59
2023-03-05T17:26:47.605Z,100830.94
2023-03-05T17:32:04.273Z,100813.03
2023-03-05T17:37:36.051Z,100826.94
2023-03-05T21:08:18.800Z,100656.69
2023-03-05T21:13:15.266Z,100604.94
2023-03-05T21:18:11.775Z,100633.91
2023-03-05T21:23:08.323Z,100626.84
2023-03-05T21:28:11.408Z,100628.63
2023-03-05T21:33:10.373Z,100623.50
2023-03-05T21:38:07.755Z,100618.47
2023-03-05T21:43:04.491Z,100621.09
2023-03-05T21:48:01.958Z,100602.66
2023-03-05T21:53:00.550Z,100605.03
2023-03-05T21:57:57.007Z,100607.66
2023-03-05T22:02:53.459Z,100599.72
2023-03-05T22:07:49.844Z,100599.09
2023-03-05T22:12:56.561Z,100597.13
2023-03-05T22:17:53.042Z,100585.97
2023-03-05T22:22:49.499Z,100573.84
2023-03-05T22:27:45.978Z,100581.88
2023-03-05T22:32:42.399Z,100571.31
2023-03-05T22:37:41.136Z,100574.97
2023-03-05T22:42:37.660Z,100577.53
2023-03-05T22:47:34.311Z,100580.09
2023-03-05T22:52:30.762Z,100571.56
2023-03-05T22:57:27.233Z,100570.09
2023-03-05T23:02:23.701Z,100565.44
2023-03-05T23:07:22.890Z,100567.78
2023-03-05T23:12:20.874Z,100570.25
2023-03-05T23:17:17.366Z,100556.25
2023-03-05T23:22:14.018Z,100552.75
2023-03-05T23:27:14.225Z,100550.28
2023-03-05T23:32:10.739Z,100565.16
2023-03-05T23:37:07.197Z,100554.66
2023-03-05T23:42:04.384Z,100552.03
2023-03-05T23:47:00.863Z,100550.41
2023-03-05T23:51:57.397Z,100556.44
2023-03-05T23:56:53.869Z,100550.41
